Mount Union, Ohio
Current Conditions -  °F | °C
As of 7:51 AM on Saturday 25 Oct 2014 (Local Time) from KCAK Reporting Station
Broken Clouds Broken Clouds  
Wind Chill: 44°   Ceiling: 15000
Heat Index: 44°   Visibility: 8mi
Dew Point: 39°   Wind: 3mph
Humidity: 82%   Direction: 220°SW
Pressure: 29.94"   Gusts: NA
Location:  40.9181°N, 81.1273°W
Report Text: KCAK 251151Z 22003KT 8SM FEW025 BKN150 07/04 A2994 RMK AO2 SLP140 T00670039 10083 20061 58004
Loading
Personal Weather Stations






























Interactive Weather Map
Tropical Storm Tracking
New forecast layout! Learn more

10-Day Weather Forecast

Advertisements
Track Severe Weather on mobile